sensor_id;sensor_type;location;lat;lon;timestamp;P1;durP1;ratioP1;P2;durP2;ratioP2
77146;SDS011;66121;52.584;9.694;2023-07-22T00:02:16;9.77;;;5.30;;
77146;SDS011;66121;52.584;9.694;2023-07-22T00:04:41;9.43;;;5.50;;
77146;SDS011;66121;52.584;9.694;2023-07-22T00:07:06;10.05;;;5.93;;
77146;SDS011;66121;52.584;9.694;2023-07-22T00:09:35;11.47;;;5.80;;
77146;SDS011;66121;52.584;9.694;2023-07-22T00:12:00;10.55;;;6.00;;
77146;SDS011;66121;52.584;9.694;2023-07-22T00:14:25;11.65;;;5.63;;
77146;SDS011;66121;52.584;9.694;2023-07-22T00:16:51;10.70;;;6.10;;
77146;SDS011;66121;52.584;9.694;2023-07-22T00:19:16;10.25;;;5.35;;
77146;SDS011;66121;52.584;9.694;2023-07-22T00:21:41;10.83;;;7.03;;
77146;SDS011;66121;52.584;9.694;2023-07-22T00:24:07;11.13;;;5.80;;
77146;SDS011;66121;52.584;9.694;2023-07-22T00:26:32;9.60;;;6.13;;
77146;SDS011;66121;52.584;9.694;2023-07-22T00:28:58;12.13;;;6.00;;
77146;SDS011;66121;52.584;9.694;2023-07-22T00:31:23;10.90;;;5.90;;
77146;SDS011;66121;52.584;9.694;2023-07-22T00:33:49;11.73;;;6.20;;
77146;SDS011;66121;52.584;9.694;2023-07-22T00:36:14;15.07;;;6.27;;
77146;SDS011;66121;52.584;9.694;2023-07-22T00:38:39;11.27;;;5.97;;
77146;SDS011;66121;52.584;9.694;2023-07-22T00:41:05;13.02;;;6.28;;
77146;SDS011;66121;52.584;9.694;2023-07-22T00:43:30;12.15;;;7.03;;
77146;SDS011;66121;52.584;9.694;2023-07-22T00:45:56;13.75;;;6.47;;
77146;SDS011;66121;52.584;9.694;2023-07-22T00:48:22;12.27;;;6.73;;
77146;SDS011;66121;52.584;9.694;2023-07-22T00:50:47;11.00;;;6.63;;
77146;SDS011;66121;52.584;9.694;2023-07-22T00:53:13;11.23;;;6.22;;
77146;SDS011;66121;52.584;9.694;2023-07-22T00:55:39;10.85;;;6.57;;
77146;SDS011;66121;52.584;9.694;2023-07-22T00:58:05;13.75;;;6.13;;
77146;SDS011;66121;52.584;9.694;2023-07-22T01:00:31;11.25;;;6.53;;
77146;SDS011;66121;52.584;9.694;2023-07-22T01:02:57;14.63;;;6.63;;
77146;SDS011;66121;52.584;9.694;2023-07-22T01:05:23;14.82;;;6.13;;
77146;SDS011;66121;52.584;9.694;2023-07-22T01:07:50;12.88;;;6.95;;
77146;SDS011;66121;52.584;9.694;2023-07-22T01:10:16;15.93;;;6.30;;
77146;SDS011;66121;52.584;9.694;2023-07-22T01:12:41;13.23;;;6.30;;
77146;SDS011;66121;52.584;9.694;2023-07-22T01:15:06;11.70;;;5.83;;
77146;SDS011;66121;52.584;9.694;2023-07-22T01:17:33;14.15;;;6.40;;
77146;SDS011;66121;52.584;9.694;2023-07-22T01:20:00;11.80;;;6.68;;
77146;SDS011;66121;52.584;9.694;2023-07-22T01:22:25;11.45;;;6.55;;
77146;SDS011;66121;52.584;9.694;2023-07-22T01:24:52;13.68;;;6.68;;
77146;SDS011;66121;52.584;9.694;2023-07-22T01:27:18;11.82;;;7.00;;
77146;SDS011;66121;52.584;9.694;2023-07-22T01:29:44;14.13;;;7.05;;
77146;SDS011;66121;52.584;9.694;2023-07-22T01:32:10;10.20;;;6.22;;
77146;SDS011;66121;52.584;9.694;2023-07-22T01:34:35;13.10;;;6.73;;
77146;SDS011;66121;52.584;9.694;2023-07-22T01:37:00;12.52;;;6.28;;
77146;SDS011;66121;52.584;9.694;2023-07-22T01:39:26;16.25;;;7.15;;
77146;SDS011;66121;52.584;9.694;2023-07-22T01:41:52;13.73;;;6.90;;
77146;SDS011;66121;52.584;9.694;2023-07-22T01:44:17;13.23;;;7.30;;
77146;SDS011;66121;52.584;9.694;2023-07-22T01:46:43;13.53;;;6.50;;
77146;SDS011;66121;52.584;9.694;2023-07-22T01:49:10;11.43;;;6.20;;
77146;SDS011;66121;52.584;9.694;2023-07-22T01:51:37;11.50;;;6.57;;
77146;SDS011;66121;52.584;9.694;2023-07-22T01:54:03;13.45;;;6.80;;
77146;SDS011;66121;52.584;9.694;2023-07-22T01:56:29;11.18;;;6.70;;
77146;SDS011;66121;52.584;9.694;2023-07-22T01:58:55;10.32;;;5.90;;
77146;SDS011;66121;52.584;9.694;2023-07-22T02:01:20;11.97;;;6.90;;
77146;SDS011;66121;52.584;9.694;2023-07-22T02:03:45;11.13;;;6.45;;
77146;SDS011;66121;52.584;9.694;2023-07-22T02:06:11;13.85;;;6.07;;
77146;SDS011;66121;52.584;9.694;2023-07-22T02:08:37;14.93;;;6.32;;
77146;SDS011;66121;52.584;9.694;2023-07-22T02:11:02;12.33;;;6.00;;
77146;SDS011;66121;52.584;9.694;2023-07-22T02:13:29;14.50;;;6.80;;
77146;SDS011;66121;52.584;9.694;2023-07-22T02:15:55;11.77;;;5.70;;
77146;SDS011;66121;52.584;9.694;2023-07-22T02:18:20;10.75;;;5.97;;
77146;SDS011;66121;52.584;9.694;2023-07-22T02:20:46;12.63;;;6.20;;
77146;SDS011;66121;52.584;9.694;2023-07-22T02:23:11;15.27;;;6.33;;
77146;SDS011;66121;52.584;9.694;2023-07-22T02:25:37;10.00;;;5.60;;
77146;SDS011;66121;52.584;9.694;2023-07-22T02:28:02;11.27;;;5.75;;
77146;SDS011;66121;52.584;9.694;2023-07-22T02:30:27;15.30;;;6.50;;
77146;SDS011;66121;52.584;9.694;2023-07-22T02:32:53;11.17;;;6.77;;
77146;SDS011;66121;52.584;9.694;2023-07-22T02:35:18;12.23;;;5.80;;
77146;SDS011;66121;52.584;9.694;2023-07-22T02:37:43;13.55;;;6.70;;
77146;SDS011;66121;52.584;9.694;2023-07-22T02:40:09;15.65;;;6.30;;
77146;SDS011;66121;52.584;9.694;2023-07-22T02:42:38;12.82;;;6.15;;
77146;SDS011;66121;52.584;9.694;2023-07-22T02:45:04;15.85;;;5.82;;
77146;SDS011;66121;52.584;9.694;2023-07-22T02:47:32;11.35;;;5.72;;
77146;SDS011;66121;52.584;9.694;2023-07-22T02:49:57;14.43;;;6.32;;
77146;SDS011;66121;52.584;9.694;2023-07-22T02:52:23;18.77;;;6.95;;
77146;SDS011;66121;52.584;9.694;2023-07-22T02:55:10;12.65;;;6.07;;
77146;SDS011;66121;52.584;9.694;2023-07-22T02:57:37;11.95;;;5.40;;
77146;SDS011;66121;52.584;9.694;2023-07-22T03:00:04;12.02;;;5.47;;
77146;SDS011;66121;52.584;9.694;2023-07-22T03:02:34;13.57;;;6.18;;
77146;SDS011;66121;52.584;9.694;2023-07-22T03:05:00;10.13;;;5.20;;
77146;SDS011;66121;52.584;9.694;2023-07-22T03:07:25;13.07;;;6.20;;
77146;SDS011;66121;52.584;9.694;2023-07-22T03:09:53;13.10;;;5.85;;
77146;SDS011;66121;52.584;9.694;2023-07-22T03:12:19;16.23;;;6.13;;
77146;SDS011;66121;52.584;9.694;2023-07-22T03:14:44;14.30;;;6.70;;
77146;SDS011;66121;52.584;9.694;2023-07-22T03:17:10;14.90;;;5.82;;
77146;SDS011;66121;52.584;9.694;2023-07-22T03:19:37;14.15;;;5.95;;
77146;SDS011;66121;52.584;9.694;2023-07-22T03:22:08;14.68;;;5.90;;
77146;SDS011;66121;52.584;9.694;2023-07-22T03:24:34;13.65;;;6.00;;
77146;SDS011;66121;52.584;9.694;2023-07-22T03:27:00;14.57;;;5.57;;
77146;SDS011;66121;52.584;9.694;2023-07-22T03:29:25;13.48;;;5.45;;
77146;SDS011;66121;52.584;9.694;2023-07-22T03:31:51;13.95;;;5.60;;
77146;SDS011;66121;52.584;9.694;2023-07-22T03:34:16;12.67;;;5.40;;
77146;SDS011;66121;52.584;9.694;2023-07-22T03:36:41;22.77;;;6.57;;
77146;SDS011;66121;52.584;9.694;2023-07-22T03:39:07;15.03;;;6.53;;
77146;SDS011;66121;52.584;9.694;2023-07-22T03:41:33;17.13;;;6.28;;
77146;SDS011;66121;52.584;9.694;2023-07-22T03:43:58;14.07;;;6.00;;
77146;SDS011;66121;52.584;9.694;2023-07-22T03:46:24;11.90;;;5.87;;
77146;SDS011;66121;52.584;9.694;2023-07-22T03:48:49;10.82;;;5.63;;
77146;SDS011;66121;52.584;9.694;2023-07-22T03:51:14;20.53;;;6.63;;
77146;SDS011;66121;52.584;9.694;2023-07-22T03:53:39;18.13;;;7.27;;
77146;SDS011;66121;52.584;9.694;2023-07-22T03:56:05;17.17;;;5.97;;
77146;SDS011;66121;52.584;9.694;2023-07-22T03:58:30;15.43;;;6.17;;
77146;SDS011;66121;52.584;9.694;2023-07-22T04:00:55;15.30;;;6.80;;
77146;SDS011;66121;52.584;9.694;2023-07-22T04:03:20;13.50;;;6.10;;
77146;SDS011;66121;52.584;9.694;2023-07-22T04:05:53;11.80;;;5.77;;
77146;SDS011;66121;52.584;9.694;2023-07-22T04:08:19;12.73;;;6.32;;
77146;SDS011;66121;52.584;9.694;2023-07-22T04:10:51;13.18;;;6.18;;
77146;SDS011;66121;52.584;9.694;2023-07-22T04:13:19;12.85;;;6.30;;
77146;SDS011;66121;52.584;9.694;2023-07-22T04:15:44;17.67;;;6.80;;
77146;SDS011;66121;52.584;9.694;2023-07-22T04:18:10;11.38;;;5.72;;
77146;SDS011;66121;52.584;9.694;2023-07-22T04:20:35;18.03;;;6.80;;
77146;SDS011;66121;52.584;9.694;2023-07-22T04:23:00;15.10;;;6.25;;
77146;SDS011;66121;52.584;9.694;2023-07-22T04:25:26;13.83;;;6.90;;
77146;SDS011;66121;52.584;9.694;2023-07-22T04:27:51;12.93;;;6.23;;
77146;SDS011;66121;52.584;9.694;2023-07-22T04:30:16;13.02;;;6.68;;
77146;SDS011;66121;52.584;9.694;2023-07-22T04:32:46;15.65;;;6.30;;
77146;SDS011;66121;52.584;9.694;2023-07-22T04:35:13;12.52;;;6.07;;
77146;SDS011;66121;52.584;9.694;2023-07-22T04:37:38;14.15;;;5.85;;
77146;SDS011;66121;52.584;9.694;2023-07-22T04:40:04;16.27;;;6.90;;
77146;SDS011;66121;52.584;9.694;2023-07-22T04:42:33;15.07;;;6.25;;
77146;SDS011;66121;52.584;9.694;2023-07-22T04:44:58;15.67;;;6.70;;
77146;SDS011;66121;52.584;9.694;2023-07-22T04:47:24;16.00;;;5.63;;
77146;SDS011;66121;52.584;9.694;2023-07-22T04:49:49;12.50;;;6.30;;
77146;SDS011;66121;52.584;9.694;2023-07-22T04:52:14;13.63;;;6.20;;
77146;SDS011;66121;52.584;9.694;2023-07-22T04:54:41;16.53;;;6.47;;
77146;SDS011;66121;52.584;9.694;2023-07-22T04:57:06;12.35;;;6.22;;
77146;SDS011;66121;52.584;9.694;2023-07-22T04:59:32;13.82;;;6.15;;
77146;SDS011;66121;52.584;9.694;2023-07-22T05:01:57;15.13;;;6.13;;
77146;SDS011;66121;52.584;9.694;2023-07-22T05:04:22;12.87;;;5.90;;
77146;SDS011;66121;52.584;9.694;2023-07-22T05:06:49;12.10;;;6.05;;
77146;SDS011;66121;52.584;9.694;2023-07-22T05:09:14;10.60;;;5.53;;
77146;SDS011;66121;52.584;9.694;2023-07-22T05:11:39;11.77;;;5.63;;
77146;SDS011;66121;52.584;9.694;2023-07-22T05:14:05;13.60;;;6.00;;
77146;SDS011;66121;52.584;9.694;2023-07-22T05:16:30;14.80;;;6.33;;
77146;SDS011;66121;52.584;9.694;2023-07-22T05:18:55;13.20;;;5.73;;
77146;SDS011;66121;52.584;9.694;2023-07-22T05:21:20;12.57;;;6.47;;
77146;SDS011;66121;52.584;9.694;2023-07-22T05:23:46;12.93;;;6.33;;
77146;SDS011;66121;52.584;9.694;2023-07-22T05:26:11;12.53;;;6.73;;
77146;SDS011;66121;52.584;9.694;2023-07-22T05:28:36;14.00;;;6.53;;
77146;SDS011;66121;52.584;9.694;2023-07-22T05:31:01;13.27;;;5.40;;
77146;SDS011;66121;52.584;9.694;2023-07-22T05:33:27;12.50;;;5.78;;
77146;SDS011;66121;52.584;9.694;2023-07-22T05:35:52;13.90;;;6.37;;
77146;SDS011;66121;52.584;9.694;2023-07-22T05:38:17;14.53;;;6.70;;
77146;SDS011;66121;52.584;9.694;2023-07-22T05:40:43;11.50;;;5.60;;
77146;SDS011;66121;52.584;9.694;2023-07-22T05:43:08;13.82;;;5.75;;
77146;SDS011;66121;52.584;9.694;2023-07-22T05:45:33;15.80;;;6.83;;
77146;SDS011;66121;52.584;9.694;2023-07-22T05:47:59;13.37;;;6.80;;
77146;SDS011;66121;52.584;9.694;2023-07-22T05:50:24;21.90;;;6.47;;
77146;SDS011;66121;52.584;9.694;2023-07-22T05:52:50;14.73;;;6.72;;
77146;SDS011;66121;52.584;9.694;2023-07-22T05:55:15;13.10;;;6.25;;
77146;SDS011;66121;52.584;9.694;2023-07-22T05:57:41;11.57;;;5.97;;
77146;SDS011;66121;52.584;9.694;2023-07-22T06:00:07;12.15;;;5.38;;
77146;SDS011;66121;52.584;9.694;2023-07-22T06:02:33;10.68;;;6.10;;
77146;SDS011;66121;52.584;9.694;2023-07-22T06:04:59;12.93;;;5.57;;
77146;SDS011;66121;52.584;9.694;2023-07-22T06:07:24;12.03;;;5.03;;
77146;SDS011;66121;52.584;9.694;2023-07-22T06:09:50;7.07;;;3.10;;
77146;SDS011;66121;52.584;9.694;2023-07-22T06:12:15;7.37;;;3.67;;
77146;SDS011;66121;52.584;9.694;2023-07-22T06:14:41;9.37;;;4.33;;
77146;SDS011;66121;52.584;9.694;2023-07-22T06:17:06;14.75;;;5.93;;
77146;SDS011;66121;52.584;9.694;2023-07-22T06:19:32;10.75;;;5.88;;
77146;SDS011;66121;52.584;9.694;2023-07-22T06:21:57;10.37;;;5.77;;
77146;SDS011;66121;52.584;9.694;2023-07-22T06:24:22;11.07;;;6.30;;
77146;SDS011;66121;52.584;9.694;2023-07-22T06:26:47;13.27;;;5.80;;
77146;SDS011;66121;52.584;9.694;2023-07-22T06:29:13;13.40;;;5.87;;
77146;SDS011;66121;52.584;9.694;2023-07-22T06:31:38;14.00;;;5.67;;
77146;SDS011;66121;52.584;9.694;2023-07-22T06:34:03;12.87;;;5.80;;
77146;SDS011;66121;52.584;9.694;2023-07-22T06:36:28;10.50;;;4.70;;
77146;SDS011;66121;52.584;9.694;2023-07-22T06:38:54;11.33;;;5.13;;
77146;SDS011;66121;52.584;9.694;2023-07-22T06:41:20;11.15;;;5.90;;
77146;SDS011;66121;52.584;9.694;2023-07-22T06:43:49;10.27;;;4.75;;
77146;SDS011;66121;52.584;9.694;2023-07-22T06:46:15;10.48;;;4.00;;
77146;SDS011;66121;52.584;9.694;2023-07-22T06:48:40;8.27;;;4.37;;
77146;SDS011;66121;52.584;9.694;2023-07-22T06:51:06;8.80;;;3.80;;
77146;SDS011;66121;52.584;9.694;2023-07-22T06:53:32;8.23;;;3.83;;
77146;SDS011;66121;52.584;9.694;2023-07-22T06:55:58;8.60;;;3.55;;
77146;SDS011;66121;52.584;9.694;2023-07-22T06:58:23;5.73;;;3.10;;
77146;SDS011;66121;52.584;9.694;2023-07-22T07:00:52;9.68;;;4.00;;
77146;SDS011;66121;52.584;9.694;2023-07-22T07:03:18;6.70;;;3.53;;
77146;SDS011;66121;52.584;9.694;2023-07-22T07:05:43;5.53;;;3.30;;
77146;SDS011;66121;52.584;9.694;2023-07-22T07:08:09;8.73;;;3.03;;
77146;SDS011;66121;52.584;9.694;2023-07-22T07:10:37;7.93;;;3.03;;
77146;SDS011;66121;52.584;9.694;2023-07-22T07:13:04;7.90;;;3.75;;
77146;SDS011;66121;52.584;9.694;2023-07-22T07:15:29;8.30;;;4.18;;
77146;SDS011;66121;52.584;9.694;2023-07-22T07:17:54;8.13;;;3.60;;
77146;SDS011;66121;52.584;9.694;2023-07-22T07:20:20;7.73;;;3.50;;
77146;SDS011;66121;52.584;9.694;2023-07-22T07:22:45;9.05;;;3.83;;
77146;SDS011;66121;52.584;9.694;2023-07-22T07:25:10;6.90;;;3.83;;
77146;SDS011;66121;52.584;9.694;2023-07-22T07:27:36;9.80;;;4.45;;
77146;SDS011;66121;52.584;9.694;2023-07-22T07:30:02;6.82;;;3.75;;
77146;SDS011;66121;52.584;9.694;2023-07-22T07:32:27;8.50;;;3.45;;
77146;SDS011;66121;52.584;9.694;2023-07-22T07:34:52;9.73;;;4.00;;
77146;SDS011;66121;52.584;9.694;2023-07-22T07:37:18;12.25;;;4.47;;
77146;SDS011;66121;52.584;9.694;2023-07-22T07:39:44;8.90;;;3.90;;
77146;SDS011;66121;52.584;9.694;2023-07-22T07:42:09;9.80;;;4.53;;
77146;SDS011;66121;52.584;9.694;2023-07-22T07:44:34;9.77;;;4.20;;
77146;SDS011;66121;52.584;9.694;2023-07-22T07:46:59;10.97;;;5.17;;
77146;SDS011;66121;52.584;9.694;2023-07-22T07:49:25;9.27;;;4.50;;
77146;SDS011;66121;52.584;9.694;2023-07-22T07:51:50;9.63;;;4.35;;
77146;SDS011;66121;52.584;9.694;2023-07-22T07:54:15;11.10;;;4.90;;
77146;SDS011;66121;52.584;9.694;2023-07-22T07:56:41;13.10;;;4.50;;
77146;SDS011;66121;52.584;9.694;2023-07-22T07:59:06;8.63;;;4.33;;
77146;SDS011;66121;52.584;9.694;2023-07-22T08:01:33;10.43;;;5.47;;
77146;SDS011;66121;52.584;9.694;2023-07-22T08:04:00;8.93;;;4.80;;
77146;SDS011;66121;52.584;9.694;2023-07-22T08:06:25;13.75;;;5.40;;
77146;SDS011;66121;52.584;9.694;2023-07-22T08:08:51;15.47;;;5.07;;
77146;SDS011;66121;52.584;9.694;2023-07-22T08:11:16;9.27;;;4.37;;
77146;SDS011;66121;52.584;9.694;2023-07-22T08:13:42;9.27;;;4.30;;
77146;SDS011;66121;52.584;9.694;2023-07-22T08:16:09;10.65;;;4.82;;
77146;SDS011;66121;52.584;9.694;2023-07-22T08:18:36;7.20;;;4.15;;
77146;SDS011;66121;52.584;9.694;2023-07-22T08:21:02;10.05;;;5.03;;
77146;SDS011;66121;52.584;9.694;2023-07-22T08:23:28;9.57;;;4.55;;
77146;SDS011;66121;52.584;9.694;2023-07-22T08:25:54;10.82;;;5.45;;
77146;SDS011;66121;52.584;9.694;2023-07-22T08:28:20;8.52;;;4.65;;
77146;SDS011;66121;52.584;9.694;2023-07-22T08:30:47;9.60;;;5.37;;
77146;SDS011;66121;52.584;9.694;2023-07-22T08:33:13;10.38;;;5.53;;
77146;SDS011;66121;52.584;9.694;2023-07-22T08:35:39;8.27;;;4.60;;
77146;SDS011;66121;52.584;9.694;2023-07-22T08:38:05;10.40;;;4.95;;
77146;SDS011;66121;52.584;9.694;2023-07-22T08:40:35;9.23;;;5.10;;
77146;SDS011;66121;52.584;9.694;2023-07-22T08:43:02;8.15;;;4.57;;
77146;SDS011;66121;52.584;9.694;2023-07-22T08:45:29;8.63;;;4.85;;
77146;SDS011;66121;52.584;9.694;2023-07-22T08:48:02;8.20;;;4.53;;
77146;SDS011;66121;52.584;9.694;2023-07-22T08:50:46;9.02;;;5.05;;
77146;SDS011;66121;52.584;9.694;2023-07-22T08:53:16;9.68;;;4.88;;
77146;SDS011;66121;52.584;9.694;2023-07-22T08:55:44;10.00;;;5.55;;
77146;SDS011;66121;52.584;9.694;2023-07-22T08:58:10;9.32;;;4.57;;
77146;SDS011;66121;52.584;9.694;2023-07-22T09:00:36;8.80;;;4.55;;
77146;SDS011;66121;52.584;9.694;2023-07-22T09:03:03;8.95;;;4.47;;
77146;SDS011;66121;52.584;9.694;2023-07-22T09:05:29;9.43;;;5.25;;
77146;SDS011;66121;52.584;9.694;2023-07-22T09:07:57;8.88;;;5.28;;
77146;SDS011;66121;52.584;9.694;2023-07-22T09:10:24;8.20;;;4.38;;
77146;SDS011;66121;52.584;9.694;2023-07-22T09:12:52;9.88;;;5.07;;
77146;SDS011;66121;52.584;9.694;2023-07-22T09:15:18;10.52;;;5.57;;
77146;SDS011;66121;52.584;9.694;2023-07-22T09:17:44;11.88;;;4.97;;
77146;SDS011;66121;52.584;9.694;2023-07-22T09:20:09;8.93;;;5.30;;
77146;SDS011;66121;52.584;9.694;2023-07-22T09:22:39;13.25;;;6.22;;
77146;SDS011;66121;52.584;9.694;2023-07-22T09:25:17;12.00;;;5.32;;
77146;SDS011;66121;52.584;9.694;2023-07-22T09:27:48;8.52;;;5.07;;
77146;SDS011;66121;52.584;9.694;2023-07-22T09:30:21;9.50;;;4.78;;
77146;SDS011;66121;52.584;9.694;2023-07-22T09:33:01;11.50;;;5.97;;
77146;SDS011;66121;52.584;9.694;2023-07-22T09:35:28;8.82;;;4.97;;
77146;SDS011;66121;52.584;9.694;2023-07-22T09:37:55;9.90;;;5.57;;
77146;SDS011;66121;52.584;9.694;2023-07-22T09:40:22;10.27;;;5.55;;
77146;SDS011;66121;52.584;9.694;2023-07-22T09:42:53;8.18;;;4.95;;
77146;SDS011;66121;52.584;9.694;2023-07-22T09:45:23;8.32;;;5.15;;
77146;SDS011;66121;52.584;9.694;2023-07-22T09:47:50;8.02;;;4.95;;
77146;SDS011;66121;52.584;9.694;2023-07-22T09:50:17;9.57;;;5.53;;
77146;SDS011;66121;52.584;9.694;2023-07-22T09:52:45;12.43;;;5.50;;
77146;SDS011;66121;52.584;9.694;2023-07-22T09:55:15;7.97;;;5.05;;
77146;SDS011;66121;52.584;9.694;2023-07-22T09:57:44;7.60;;;4.93;;
77146;SDS011;66121;52.584;9.694;2023-07-22T10:00:11;10.15;;;5.18;;
77146;SDS011;66121;52.584;9.694;2023-07-22T10:02:39;9.68;;;5.13;;
77146;SDS011;66121;52.584;9.694;2023-07-22T10:05:07;10.05;;;5.70;;
77146;SDS011;66121;52.584;9.694;2023-07-22T10:07:37;10.90;;;5.50;;
77146;SDS011;66121;52.584;9.694;2023-07-22T10:10:04;8.75;;;5.43;;
77146;SDS011;66121;52.584;9.694;2023-07-22T10:12:30;9.60;;;6.05;;
77146;SDS011;66121;52.584;9.694;2023-07-22T10:14:56;8.45;;;5.38;;
77146;SDS011;66121;52.584;9.694;2023-07-22T10:17:22;9.02;;;5.50;;
77146;SDS011;66121;52.584;9.694;2023-07-22T10:19:48;9.90;;;5.40;;
77146;SDS011;66121;52.584;9.694;2023-07-22T10:22:15;10.02;;;5.47;;
77146;SDS011;66121;52.584;9.694;2023-07-22T10:24:40;8.50;;;5.40;;
77146;SDS011;66121;52.584;9.694;2023-07-22T10:27:06;10.75;;;5.47;;
77146;SDS011;66121;52.584;9.694;2023-07-22T10:29:32;9.27;;;4.95;;
77146;SDS011;66121;52.584;9.694;2023-07-22T10:31:58;6.93;;;4.85;;
77146;SDS011;66121;52.584;9.694;2023-07-22T10:34:24;10.10;;;5.40;;
77146;SDS011;66121;52.584;9.694;2023-07-22T10:36:49;14.18;;;6.65;;
77146;SDS011;66121;52.584;9.694;2023-07-22T10:39:24;8.80;;;5.75;;
77146;SDS011;66121;52.584;9.694;2023-07-22T10:41:57;8.88;;;5.28;;
77146;SDS011;66121;52.584;9.694;2023-07-22T10:44:25;11.05;;;5.80;;
77146;SDS011;66121;52.584;9.694;2023-07-22T10:46:58;9.93;;;5.75;;
77146;SDS011;66121;52.584;9.694;2023-07-22T10:49:24;9.32;;;5.07;;
77146;SDS011;66121;52.584;9.694;2023-07-22T10:51:52;8.90;;;5.30;;
77146;SDS011;66121;52.584;9.694;2023-07-22T10:54:33;7.40;;;4.97;;
77146;SDS011;66121;52.584;9.694;2023-07-22T10:57:43;3.50;;;2.22;;
77146;SDS011;66121;52.584;9.694;2023-07-22T10:59:52;2.25;;;1.88;;
77146;SDS011;66121;52.584;9.694;2023-07-22T11:02:23;1.88;;;1.27;;
77146;SDS011;66121;52.584;9.694;2023-07-22T11:04:55;2.42;;;1.75;;
77146;SDS011;66121;52.584;9.694;2023-07-22T11:07:34;5.13;;;2.58;;
77146;SDS011;66121;52.584;9.694;2023-07-22T11:10:15;4.75;;;1.60;;
77146;SDS011;66121;52.584;9.694;2023-07-22T11:12:44;1.85;;;0.85;;
77146;SDS011;66121;52.584;9.694;2023-07-22T11:15:10;1.10;;;1.00;;
77146;SDS011;66121;52.584;9.694;2023-07-22T11:17:35;2.97;;;2.03;;
77146;SDS011;66121;52.584;9.694;2023-07-22T11:20:02;3.97;;;2.85;;
77146;SDS011;66121;52.584;9.694;2023-07-22T11:22:28;3.00;;;1.90;;
77146;SDS011;66121;52.584;9.694;2023-07-22T11:24:56;3.03;;;2.28;;
77146;SDS011;66121;52.584;9.694;2023-07-22T11:27:25;3.60;;;2.15;;
77146;SDS011;66121;52.584;9.694;2023-07-22T11:29:50;4.60;;;2.75;;
77146;SDS011;66121;52.584;9.694;2023-07-22T11:32:16;7.05;;;3.28;;
77146;SDS011;66121;52.584;9.694;2023-07-22T11:34:44;5.38;;;2.90;;
77146;SDS011;66121;52.584;9.694;2023-07-22T11:37:10;4.40;;;2.65;;
77146;SDS011;66121;52.584;9.694;2023-07-22T11:39:35;6.22;;;2.53;;
77146;SDS011;66121;52.584;9.694;2023-07-22T11:42:02;4.68;;;2.47;;
77146;SDS011;66121;52.584;9.694;2023-07-22T11:44:28;4.63;;;2.17;;
77146;SDS011;66121;52.584;9.694;2023-07-22T11:46:59;3.72;;;2.08;;
77146;SDS011;66121;52.584;9.694;2023-07-22T11:49:32;3.35;;;2.15;;
77146;SDS011;66121;52.584;9.694;2023-07-22T11:52:05;2.05;;;1.75;;
77146;SDS011;66121;52.584;9.694;2023-07-22T11:54:35;2.95;;;2.03;;
77146;SDS011;66121;52.584;9.694;2023-07-22T11:57:14;3.20;;;2.03;;
77146;SDS011;66121;52.584;9.694;2023-07-22T11:59:47;3.28;;;2.33;;
77146;SDS011;66121;52.584;9.694;2023-07-22T12:02:14;3.13;;;2.50;;
77146;SDS011;66121;52.584;9.694;2023-07-22T12:04:41;4.22;;;2.33;;
77146;SDS011;66121;52.584;9.694;2023-07-22T12:07:20;6.55;;;2.67;;
77146;SDS011;66121;52.584;9.694;2023-07-22T12:09:49;3.08;;;2.83;;
77146;SDS011;66121;52.584;9.694;2023-07-22T12:12:16;0.82;;;0.82;;
77146;SDS011;66121;52.584;9.694;2023-07-22T12:14:42;8.83;;;1.77;;
77146;SDS011;66121;52.584;9.694;2023-07-22T12:17:10;0.60;;;0.60;;
77146;SDS011;66121;52.584;9.694;2023-07-22T12:19:35;0.60;;;0.60;;
77146;SDS011;66121;52.584;9.694;2023-07-22T12:22:01;0.63;;;0.52;;
77146;SDS011;66121;52.584;9.694;2023-07-22T12:24:27;0.45;;;0.45;;
77146;SDS011;66121;52.584;9.694;2023-07-22T12:26:53;0.95;;;0.65;;
77146;SDS011;66121;52.584;9.694;2023-07-22T12:29:18;0.80;;;0.77;;
77146;SDS011;66121;52.584;9.694;2023-07-22T12:31:43;1.80;;;1.15;;
77146;SDS011;66121;52.584;9.694;2023-07-22T12:34:09;0.70;;;0.57;;
77146;SDS011;66121;52.584;9.694;2023-07-22T12:36:34;0.93;;;0.43;;
77146;SDS011;66121;52.584;9.694;2023-07-22T12:38:59;1.27;;;0.87;;
77146;SDS011;66121;52.584;9.694;2023-07-22T12:41:24;1.37;;;0.80;;
77146;SDS011;66121;52.584;9.694;2023-07-22T12:43:50;1.97;;;1.47;;
77146;SDS011;66121;52.584;9.694;2023-07-22T12:46:15;2.70;;;1.50;;
77146;SDS011;66121;52.584;9.694;2023-07-22T12:48:41;2.13;;;1.40;;
77146;SDS011;66121;52.584;9.694;2023-07-22T12:51:06;5.03;;;1.90;;
77146;SDS011;66121;52.584;9.694;2023-07-22T12:53:31;2.30;;;1.48;;
77146;SDS011;66121;52.584;9.694;2023-07-22T12:55:57;3.17;;;2.20;;
77146;SDS011;66121;52.584;9.694;2023-07-22T12:58:22;3.88;;;2.05;;
77146;SDS011;66121;52.584;9.694;2023-07-22T13:00:47;4.23;;;2.20;;
77146;SDS011;66121;52.584;9.694;2023-07-22T13:03:13;2.97;;;1.90;;
77146;SDS011;66121;52.584;9.694;2023-07-22T13:05:38;2.78;;;1.98;;
77146;SDS011;66121;52.584;9.694;2023-07-22T13:08:04;4.25;;;2.83;;
77146;SDS011;66121;52.584;9.694;2023-07-22T13:10:29;5.70;;;2.45;;
77146;SDS011;66121;52.584;9.694;2023-07-22T13:12:56;6.40;;;2.58;;
77146;SDS011;66121;52.584;9.694;2023-07-22T13:15:22;1.55;;;1.20;;
77146;SDS011;66121;52.584;9.694;2023-07-22T13:17:47;4.47;;;2.28;;
77146;SDS011;66121;52.584;9.694;2023-07-22T13:20:12;7.00;;;3.57;;
77146;SDS011;66121;52.584;9.694;2023-07-22T13:22:38;4.85;;;2.50;;
77146;SDS011;66121;52.584;9.694;2023-07-22T13:25:04;2.53;;;1.75;;
77146;SDS011;66121;52.584;9.694;2023-07-22T13:27:30;3.83;;;2.33;;
77146;SDS011;66121;52.584;9.694;2023-07-22T13:29:55;2.60;;;2.03;;
77146;SDS011;66121;52.584;9.694;2023-07-22T13:32:21;4.13;;;3.00;;
77146;SDS011;66121;52.584;9.694;2023-07-22T13:34:46;3.78;;;3.00;;
77146;SDS011;66121;52.584;9.694;2023-07-22T13:37:11;1.90;;;1.60;;
77146;SDS011;66121;52.584;9.694;2023-07-22T13:39:36;2.50;;;1.67;;
77146;SDS011;66121;52.584;9.694;2023-07-22T13:42:02;4.17;;;2.43;;
77146;SDS011;66121;52.584;9.694;2023-07-22T13:44:27;4.68;;;2.20;;
77146;SDS011;66121;52.584;9.694;2023-07-22T13:46:52;3.97;;;2.00;;
77146;SDS011;66121;52.584;9.694;2023-07-22T13:49:18;3.43;;;3.03;;
77146;SDS011;66121;52.584;9.694;2023-07-22T13:51:43;2.93;;;2.57;;
77146;SDS011;66121;52.584;9.694;2023-07-22T13:54:08;6.33;;;3.43;;
77146;SDS011;66121;52.584;9.694;2023-07-22T13:56:34;6.15;;;3.17;;
77146;SDS011;66121;52.584;9.694;2023-07-22T13:58:59;4.85;;;3.13;;
77146;SDS011;66121;52.584;9.694;2023-07-22T14:01:26;4.03;;;2.80;;
77146;SDS011;66121;52.584;9.694;2023-07-22T14:03:51;4.78;;;2.70;;
77146;SDS011;66121;52.584;9.694;2023-07-22T14:06:16;6.15;;;3.10;;
77146;SDS011;66121;52.584;9.694;2023-07-22T14:08:42;5.23;;;3.20;;
77146;SDS011;66121;52.584;9.694;2023-07-22T14:11:07;3.77;;;2.97;;
77146;SDS011;66121;52.584;9.694;2023-07-22T14:13:33;5.60;;;3.92;;
77146;SDS011;66121;52.584;9.694;2023-07-22T14:15:58;4.78;;;3.72;;
77146;SDS011;66121;52.584;9.694;2023-07-22T14:18:24;4.23;;;2.90;;
77146;SDS011;66121;52.584;9.694;2023-07-22T14:20:49;4.38;;;3.90;;
77146;SDS011;66121;52.584;9.694;2023-07-22T14:23:15;4.78;;;2.47;;
77146;SDS011;66121;52.584;9.694;2023-07-22T14:25:40;6.10;;;4.20;;
77146;SDS011;66121;52.584;9.694;2023-07-22T14:28:05;5.68;;;3.00;;
77146;SDS011;66121;52.584;9.694;2023-07-22T14:30:31;5.45;;;3.88;;
77146;SDS011;66121;52.584;9.694;2023-07-22T14:32:56;4.50;;;3.25;;
77146;SDS011;66121;52.584;9.694;2023-07-22T14:35:22;5.35;;;3.33;;
77146;SDS011;66121;52.584;9.694;2023-07-22T14:37:47;5.80;;;4.10;;